Time;durP1;ratioP1;P1;durP2;ratioP2;P2;SDS_P1;SDS_P2;PMS_P1;PMS_P2;Temp;Humidity;BMP_temperature;BMP_pressure;BME280_temperature;BME280_humidity;BME280_pressure;Samples;Min_cycle;Max_cycle;Signal;HPM_P1;HPM_P2
2022/03/09 00:34:33;;;;;;;22.97;10.70;;;;;;;5.58;34.77;97987.75;5024908;28;20434;-70
2022/03/09 00:36:59;;;;;;;18.03;10.90;;;;;;;5.57;34.81;97986.06;5042208;28;20427;-69
2022/03/09 00:39:24;;;;;;;19.40;11.40;;;;;;;5.56;35.00;97989.59;5043349;28;20293;-68
2022/03/09 00:41:50;;;;;;;18.47;11.17;;;;;;;5.61;34.73;97984.94;5042347;28;20207;-69
2022/03/09 00:44:15;;;;;;;26.73;11.00;;;;;;;5.62;35.34;97986.63;5042698;28;20190;-69
2022/03/09 00:46:41;;;;;;;18.00;11.27;;;;;;;5.58;34.72;97995.53;5037605;28;20193;-69
2022/03/09 00:49:06;;;;;;;16.47;10.87;;;;;;;5.59;35.29;97984.22;5035444;28;20187;-69
2022/03/09 00:51:32;;;;;;;19.93;11.07;;;;;;;5.53;34.83;97985.44;5034269;28;20573;-69
2022/03/09 00:53:57;;;;;;;20.27;11.50;;;;;;;5.48;35.61;97984.91;5033809;28;20211;-68
2022/03/09 00:56:23;;;;;;;18.33;10.77;;;;;;;5.45;35.58;97987.72;5032984;28;20328;-68
2022/03/09 00:58:48;;;;;;;22.33;11.60;;;;;;;5.41;35.15;97990.63;5033159;28;20263;-69
2022/03/09 01:01:14;;;;;;;17.50;11.07;;;;;;;5.42;35.69;97992.31;5032948;28;20215;-68
2022/03/09 01:03:40;;;;;;;20.17;12.03;;;;;;;5.39;35.29;97990.72;5032931;28;20701;-68
2022/03/09 01:06:05;;;;;;;18.83;12.07;;;;;;;5.40;35.28;97989.78;5031678;28;20272;-68
2022/03/09 01:08:31;;;;;;;21.77;12.63;;;;;;;5.38;35.79;97982.09;5017107;28;20182;-68
2022/03/09 01:10:56;;;;;;;22.73;12.00;;;;;;;5.28;35.68;97988.84;5014860;28;20211;-68
2022/03/09 01:13:22;;;;;;;17.93;11.53;;;;;;;5.30;36.10;97979.16;5032367;28;20848;-68
2022/03/09 01:15:48;;;;;;;22.77;12.80;;;;;;;5.25;35.56;97981.22;5031791;28;20239;-67
2022/03/09 01:18:13;;;;;;;21.87;11.40;;;;;;;5.28;35.79;97980.19;5031831;28;20648;-69
2022/03/09 01:20:39;;;;;;;18.87;11.77;;;;;;;5.31;36.20;97982.59;5030781;28;20541;-68
2022/03/09 01:23:05;;;;;;;18.97;11.57;;;;;;;5.26;36.09;97971.66;5032575;28;20602;-69
2022/03/09 01:25:30;;;;;;;19.80;11.40;;;;;;;5.14;36.28;97978.50;5031977;28;20181;-67
2022/03/09 01:27:56;;;;;;;19.50;11.40;;;;;;;5.16;36.06;97974.03;5014787;28;20214;-68
2022/03/09 01:30:21;;;;;;;20.03;11.47;;;;;;;5.14;36.30;97981.09;5031756;28;20210;-69
2022/03/09 01:32:47;;;;;;;18.00;11.67;;;;;;;5.10;36.71;97983.06;5032499;28;20228;-69
2022/03/09 01:35:12;;;;;;;20.90;12.10;;;;;;;5.08;36.17;97974.53;5030731;28;20182;-69
2022/03/09 01:37:38;;;;;;;19.57;11.60;;;;;;;5.12;36.23;97975.97;5031042;28;20260;-68
2022/03/09 01:40:04;;;;;;;23.10;11.83;;;;;;;5.08;36.86;97971.94;5032061;28;20191;-69
2022/03/09 01:42:30;;;;;;;16.37;11.00;;;;;;;5.04;36.63;97973.06;5031975;28;20677;-67
2022/03/09 01:45:00;;;;;;;17.43;11.50;;;;;;;5.02;36.85;97967.13;5031505;28;20427;-67
2022/03/09 01:47:26;;;;;;;20.00;11.57;;;;;;;5.01;37.11;97960.25;5032386;28;20208;-68
2022/03/09 01:49:51;;;;;;;20.47;10.60;;;;;;;5.04;36.66;97970.44;5014251;28;20557;-68
2022/03/09 01:52:17;;;;;;;16.37;10.03;;;;;;;5.05;36.70;97975.53;5031695;28;20197;-68
2022/03/09 01:54:44;;;;;;;16.53;10.50;;;;;;;5.05;36.49;97969.53;5030596;28;20645;-69
2022/03/09 01:57:09;;;;;;;19.33;11.00;;;;;;;5.08;36.86;97974.53;5030915;28;20207;-67
2022/03/09 01:59:34;;;;;;;17.33;10.83;;;;;;;4.71;37.08;97964.72;5031668;28;20887;-69
2022/03/09 02:02:00;;;;;;;14.90;9.80;;;;;;;4.69;37.22;97969.16;5030510;28;20216;-69
2022/03/09 02:04:27;;;;;;;16.10;10.47;;;;;;;4.73;37.98;97962.00;5031611;28;20184;-69
2022/03/09 02:06:52;;;;;;;16.93;10.33;;;;;;;4.72;37.57;97958.59;5031127;28;20191;-69
2022/03/09 02:12:02;;;;;;;17.77;10.03;;;;;;;4.84;37.27;97963.94;5030798;28;20214;-69
2022/03/09 02:14:36;;;;;;;17.03;11.03;;;;;;;4.83;37.70;97955.31;5013046;28;20427;-68
2022/03/09 02:17:10;;;;;;;18.53;10.87;;;;;;;4.81;37.21;97951.97;5030378;28;20205;-68
2022/03/09 02:19:36;;;;;;;14.60;10.17;;;;;;;4.75;37.60;97957.56;5023727;28;20452;-68
2022/03/09 02:22:36;;;;;;;15.77;9.83;;;;;;;4.74;37.64;97958.47;5031142;28;20478;-68
2022/03/09 02:25:04;;;;;;;14.03;9.20;;;;;;;4.66;37.41;97951.19;4949769;28;20443;-68
2022/03/09 02:27:29;;;;;;;18.13;11.00;;;;;;;4.60;37.72;97947.19;4944598;28;20536;-68
2022/03/09 02:29:55;;;;;;;21.60;11.20;;;;;;;4.57;38.01;97954.34;4950476;28;20427;-69
2022/03/09 02:32:21;;;;;;;14.97;9.50;;;;;;;4.54;38.31;97949.34;4949741;28;20212;-67
2022/03/09 02:34:47;;;;;;;17.93;9.97;;;;;;;4.49;37.80;97952.22;4948200;28;20204;-69
2022/03/09 02:37:12;;;;;;;15.77;9.33;;;;;;;4.53;37.86;97950.31;4948643;28;20467;-68
2022/03/09 02:39:38;;;;;;;13.90;9.57;;;;;;;4.41;37.95;97949.28;4950260;28;20515;-68
2022/03/09 02:42:04;;;;;;;15.07;8.37;;;;;;;4.41;38.28;97952.69;4948982;28;20663;-69
2022/03/09 02:44:30;;;;;;;14.87;8.23;;;;;;;4.48;38.17;97952.34;4934480;29;20784;-68
2022/03/09 02:46:56;;;;;;;14.00;8.40;;;;;;;4.46;38.23;97942.88;4950641;29;20482;-69
2022/03/09 02:49:21;;;;;;;16.50;9.73;;;;;;;4.50;37.67;97945.28;4950242;28;20253;-69
2022/03/09 02:51:47;;;;;;;14.80;9.50;;;;;;;4.46;38.01;97937.69;4950272;28;20547;-69
2022/03/09 02:54:12;;;;;;;15.90;9.57;;;;;;;4.44;38.36;97944.72;4942137;28;20207;-68
2022/03/09 02:56:38;;;;;;;18.50;10.00;;;;;;;4.45;38.27;97946.41;4950375;28;20186;-68
2022/03/09 02:59:03;;;;;;;18.83;11.23;;;;;;;4.32;38.55;97942.06;4950721;28;20269;-67
2022/03/09 03:01:29;;;;;;;16.20;9.93;;;;;;;4.13;38.54;97945.78;5020381;28;20217;-69
2022/03/09 03:03:55;;;;;;;12.93;8.63;;;;;;;4.22;38.43;97944.41;5038503;28;20185;-68
2022/03/09 03:06:20;;;;;;;19.30;10.30;;;;;;;4.06;38.74;97940.13;5032101;28;20180;-68
2022/03/09 03:08:45;;;;;;;16.97;9.70;;;;;;;4.19;38.36;97944.56;5030163;28;20184;-67
2022/03/09 03:11:11;;;;;;;15.43;9.20;;;;;;;4.27;38.01;97950.97;5029676;28;20209;-69
2022/03/09 03:13:39;;;;;;;15.43;9.23;;;;;;;4.25;38.95;97949.41;5030264;28;20672;-68
2022/03/09 03:16:08;;;;;;;14.37;8.93;;;;;;;4.15;38.64;97960.34;5030374;28;20391;-69
2022/03/09 03:18:34;;;;;;;15.67;10.27;;;;;;;4.25;38.91;97954.59;5031097;28;20584;-68
2022/03/09 03:21:00;;;;;;;14.00;8.80;;;;;;;4.24;38.76;97958.13;5030756;28;20546;-70
2022/03/09 03:23:28;;;;;;;14.70;9.40;;;;;;;4.14;38.83;97953.50;5030475;28;20698;-67
2022/03/09 03:25:55;;;;;;;15.23;9.17;;;;;;;4.05;39.21;97967.00;5021957;28;20785;-69
2022/03/09 03:28:21;;;;;;;16.60;9.50;;;;;;;4.06;39.04;97955.72;5029693;28;20911;-68
2022/03/09 03:30:47;;;;;;;16.10;8.63;;;;;;;4.12;38.65;97965.72;5030352;28;20843;-69
2022/03/09 03:33:13;;;;;;;17.13;9.50;;;;;;;4.03;38.81;97952.47;5030481;28;20419;-68
2022/03/09 03:35:39;;;;;;;13.80;8.37;;;;;;;4.15;39.19;97965.56;5030522;28;20429;-68
2022/03/09 03:38:04;;;;;;;25.43;9.70;;;;;;;4.20;38.77;97962.66;5030526;28;20442;-69
2022/03/09 03:40:30;;;;;;;15.03;8.87;;;;;;;4.19;38.36;97960.16;5012140;28;20208;-68
2022/03/09 03:42:55;;;;;;;13.27;9.20;;;;;;;4.19;38.55;97967.94;5030424;28;20197;-69
2022/03/09 03:45:21;;;;;;;17.10;9.60;;;;;;;4.19;38.74;97965.34;5029823;28;20197;-69
2022/03/09 03:47:47;;;;;;;15.43;9.40;;;;;;;4.07;38.72;97964.34;5021917;28;20536;-69
2022/03/09 03:50:12;;;;;;;19.23;9.77;;;;;;;4.06;39.08;97971.28;5022371;28;20250;-68
2022/03/09 03:52:38;;;;;;;13.60;9.03;;;;;;;4.03;38.33;97971.47;5030714;28;20423;-68
2022/03/09 03:55:04;;;;;;;18.33;8.10;;;;;;;4.06;39.04;97973.88;5030266;28;20181;-69
2022/03/09 03:57:29;;;;;;;14.33;9.30;;;;;;;4.12;38.62;97981.28;5030427;28;20200;-69
2022/03/09 03:59:55;;;;;;;13.43;8.77;;;;;;;4.06;39.05;97975.63;5030318;28;20423;-69
2022/03/09 04:02:20;;;;;;;13.20;8.57;;;;;;;4.05;38.68;97981.75;5034684;28;20227;-69
2022/03/09 04:04:46;;;;;;;16.97;9.13;;;;;;;4.03;38.80;97987.03;5036777;28;20215;-69
2022/03/09 04:07:11;;;;;;;13.63;8.47;;;;;;;3.92;39.44;97987.69;5035697;28;20189;-69
2022/03/09 04:09:37;;;;;;;13.10;8.30;;;;;;;3.97;39.04;97993.41;5028924;28;20188;-69
2022/03/09 04:12:02;;;;;;;16.80;8.73;;;;;;;3.90;38.90;97986.09;5033121;28;20397;-68
2022/03/09 04:14:28;;;;;;;14.00;9.30;;;;;;;3.98;39.12;97989.06;5030324;28;20176;-68
2022/03/09 04:16:53;;;;;;;16.17;9.27;;;;;;;4.00;38.95;97987.22;5030416;28;20183;-68
2022/03/09 04:19:19;;;;;;;13.50;9.27;;;;;;;3.95;38.89;98000.47;5029750;28;20192;-68
2022/03/09 04:21:44;;;;;;;12.53;9.07;;;;;;;3.97;39.18;97995.19;5029786;28;20200;-68
2022/03/09 04:24:10;;;;;;;14.73;8.93;;;;;;;3.89;39.20;97990.44;5030760;28;20180;-68
2022/03/09 04:26:35;;;;;;;15.30;8.07;;;;;;;3.72;39.75;97986.25;5033812;28;20184;-68
2022/03/09 04:29:01;;;;;;;22.70;8.63;;;;;;;3.72;39.47;97986.25;5033774;28;20632;-68
2022/03/09 04:31:26;;;;;;;17.80;8.80;;;;;;;3.74;39.64;97987.00;5033599;28;20286;-68
2022/03/09 04:33:52;;;;;;;13.70;8.70;;;;;;;3.77;39.27;97985.97;5033749;28;20188;-68
2022/03/09 04:36:17;;;;;;;14.20;8.97;;;;;;;3.78;39.26;97992.84;5033358;28;20233;-69
2022/03/09 04:38:43;;;;;;;11.67;8.20;;;;;;;3.80;39.06;97976.25;5033300;28;20271;-69
2022/03/09 04:41:09;;;;;;;14.60;9.90;;;;;;;3.74;39.64;97979.22;5014835;28;20254;-68
2022/03/09 04:43:34;;;;;;;13.70;8.50;;;;;;;3.69;39.49;97970.88;5033006;28;20701;-69
2022/03/09 04:45:59;;;;;;;12.63;8.33;;;;;;;3.73;39.77;97979.28;5033326;28;20676;-68
2022/03/09 04:48:25;;;;;;;13.43;9.20;;;;;;;3.67;39.61;97973.56;5033584;28;20184;-69
2022/03/09 04:50:50;;;;;;;14.37;8.23;;;;;;;3.69;39.75;97970.88;5026560;28;20253;-69
2022/03/09 04:53:16;;;;;;;13.63;8.13;;;;;;;3.69;39.52;97965.69;5027169;28;20186;-69
2022/03/09 04:55:41;;;;;;;12.70;8.00;;;;;;;3.71;39.66;97965.63;5033044;28;20214;-69
2022/03/09 04:58:07;;;;;;;16.83;8.60;;;;;;;3.74;39.31;97960.22;5033386;28;20333;-69
2022/03/09 05:00:32;;;;;;;13.87;9.03;;;;;;;3.79;38.70;97963.41;5040124;28;20887;-67
2022/03/09 05:02:58;;;;;;;14.60;8.40;;;;;;;3.79;38.36;97964.22;5032550;28;20266;-67
2022/03/09 05:05:23;;;;;;;11.60;7.47;;;;;;;3.88;38.91;97964.59;5032178;28;20339;-69
2022/03/09 05:07:49;;;;;;;14.63;8.50;;;;;;;3.89;38.88;97974.06;5031635;28;20172;-67
2022/03/09 05:10:14;;;;;;;11.80;7.83;;;;;;;3.74;38.97;97971.44;5036061;28;20747;-69
2022/03/09 05:12:40;;;;;;;10.30;7.60;;;;;;;3.76;39.71;97972.19;5032971;28;20190;-68
2022/03/09 05:15:06;;;;;;;13.03;8.30;;;;;;;3.58;39.51;97973.25;5032594;28;20570;-69
2022/03/09 05:17:31;;;;;;;12.80;8.53;;;;;;;3.61;39.30;97970.50;5030714;28;20267;-67
2022/03/09 05:19:57;;;;;;;12.63;7.43;;;;;;;3.59;39.76;97973.16;5031714;28;20431;-69
2022/03/09 05:22:23;;;;;;;16.60;9.00;;;;;;;3.63;39.85;97981.63;5013570;28;20214;-69
2022/03/09 05:24:48;;;;;;;13.13;8.57;;;;;;;3.56;39.77;97983.72;5032499;28;20502;-68
2022/03/09 05:27:15;;;;;;;17.50;9.37;;;;;;;3.61;39.40;97986.06;5031641;28;20188;-68
2022/03/09 05:29:40;;;;;;;16.17;8.87;;;;;;;3.51;39.94;97993.53;5032189;28;20176;-70
2022/03/09 05:32:06;;;;;;;16.17;9.27;;;;;;;3.53;40.07;97997.69;5031649;28;20457;-69
2022/03/09 05:34:31;;;;;;;11.50;8.53;;;;;;;3.57;39.94;97997.50;5031363;28;20199;-69
2022/03/09 05:36:57;;;;;;;13.10;8.67;;;;;;;3.57;40.17;98000.97;5031641;28;20176;-68
2022/03/09 05:39:22;;;;;;;22.57;11.43;;;;;;;3.49;39.95;97997.94;5031274;28;20186;-68
2022/03/09 05:41:48;;;;;;;64.07;27.43;;;;;;;3.51;40.48;98006.47;5032275;28;20216;-68
2022/03/09 05:44:14;;;;;;;46.87;20.73;;;;;;;3.51;40.17;98017.69;5037654;28;20195;-68
2022/03/09 05:46:39;;;;;;;75.00;33.03;;;;;;;3.56;40.22;98016.59;5032185;28;20262;-68
2022/03/09 05:49:05;;;;;;;64.10;30.43;;;;;;;3.54;40.22;98025.28;5030384;28;20556;-66
2022/03/09 05:51:31;;;;;;;77.93;34.63;;;;;;;3.40;40.23;98020.06;5031619;28;20196;-68
2022/03/09 05:53:57;;;;;;;63.73;28.87;;;;;;;3.39;40.73;98018.41;5031575;28;20192;-68
2022/03/09 05:56:22;;;;;;;67.83;28.53;;;;;;;3.42;40.48;98018.19;5031694;28;20635;-68
2022/03/09 05:58:48;;;;;;;49.13;24.73;;;;;;;3.37;40.38;98025.41;5032073;28;20176;-69
2022/03/09 06:01:13;;;;;;;42.10;20.50;;;;;;;3.38;40.56;98027.09;5031385;28;20215;-69
2022/03/09 06:03:38;;;;;;;33.10;15.43;;;;;;;3.36;40.38;98034.13;5031697;28;20242;-69
2022/03/09 06:06:04;;;;;;;15.33;10.27;;;;;;;3.43;40.43;98025.06;5031316;28;20180;-69
2022/03/09 06:08:29;;;;;;;16.30;9.37;;;;;;;3.49;40.10;98024.72;5031136;28;20180;-69
2022/03/09 06:10:55;;;;;;;15.23;9.80;;;;;;;3.52;40.51;98029.75;5031370;28;20230;-68
2022/03/09 06:13:21;;;;;;;14.80;10.07;;;;;;;3.48;40.01;98030.81;5031483;28;20547;-69
2022/03/09 06:15:48;;;;;;;17.97;9.50;;;;;;;3.42;40.18;98028.56;5031459;28;20414;-70
2022/03/09 06:18:13;;;;;;;15.90;9.30;;;;;;;3.51;40.25;98030.66;5031224;28;20180;-69
2022/03/09 06:20:39;;;;;;;19.67;11.33;;;;;;;3.74;39.85;98033.69;5031687;28;20950;-69
2022/03/09 06:23:04;;;;;;;24.90;13.53;;;;;;;4.08;39.78;98031.69;5031361;28;20219;-69
2022/03/09 06:25:30;;;;;;;22.93;13.63;;;;;;;4.34;39.44;98041.44;5030180;28;20172;-68
2022/03/09 06:27:55;;;;;;;21.43;12.07;;;;;;;4.46;39.30;98046.72;5030215;28;20192;-68
2022/03/09 06:30:21;;;;;;;18.37;11.37;;;;;;;4.61;38.45;98049.31;5031244;28;20223;-67
2022/03/09 06:32:47;;;;;;;17.03;10.60;;;;;;;4.74;38.72;98045.03;5031290;28;20173;-69
2022/03/09 06:35:14;;;;;;;17.87;10.00;;;;;;;4.72;38.90;98049.50;5013265;28;20667;-68
2022/03/09 06:37:40;;;;;;;23.00;10.17;;;;;;;4.78;39.05;98047.44;5030935;28;20436;-68
2022/03/09 06:40:06;;;;;;;19.17;9.70;;;;;;;4.88;37.70;98053.72;5031427;28;20423;-69
2022/03/09 06:42:32;;;;;;;18.70;10.27;;;;;;;4.96;37.36;98054.09;5030156;28;20513;-69
2022/03/09 06:44:58;;;;;;;20.77;10.87;;;;;;;4.96;38.08;98050.66;5030608;28;20928;-69
2022/03/09 06:47:24;;;;;;;19.70;10.17;;;;;;;5.02;36.70;98053.72;5030046;28;20211;-69
2022/03/09 06:49:49;;;;;;;18.90;10.80;;;;;;;5.19;37.09;98051.78;5031051;28;20424;-69
2022/03/09 06:52:15;;;;;;;22.30;11.30;;;;;;;5.27;36.58;98052.16;5026531;28;20193;-68
2022/03/09 06:54:41;;;;;;;19.37;10.97;;;;;;;5.48;36.86;98062.09;5029411;28;20226;-68
2022/03/09 06:57:06;;;;;;;21.83;10.90;;;;;;;5.65;35.78;98048.84;5029596;28;20289;-68
2022/03/09 06:59:32;;;;;;;16.20;10.67;;;;;;;5.74;35.68;98054.34;5030832;28;20182;-68
2022/03/09 07:01:57;;;;;;;19.07;11.17;;;;;;;5.92;35.58;98060.13;5029883;28;20679;-68
2022/03/09 07:04:23;;;;;;;19.07;10.90;;;;;;;6.02;34.74;98062.97;5030609;28;20671;-68
2022/03/09 07:06:48;;;;;;;25.33;11.33;;;;;;;6.14;34.51;98068.19;5031109;28;20230;-68
2022/03/09 07:09:14;;;;;;;25.30;11.00;;;;;;;6.19;34.21;98070.47;5030918;28;20195;-68
2022/03/09 07:11:41;;;;;;;18.03;10.60;;;;;;;6.19;34.41;98067.88;5031070;28;20585;-69
2022/03/09 07:14:06;;;;;;;20.20;11.30;;;;;;;6.06;34.46;98075.69;5030845;28;20457;-69
2022/03/09 07:16:32;;;;;;;16.70;10.80;;;;;;;6.05;34.34;98078.41;5030047;28;20905;-68
2022/03/09 07:18:57;;;;;;;16.47;10.70;;;;;;;6.01;34.84;98082.13;5030187;28;20527;-69
2022/03/09 07:21:23;;;;;;;16.70;10.87;;;;;;;5.95;34.67;98083.34;5030625;28;20240;-69
2022/03/09 07:23:48;;;;;;;18.50;12.33;;;;;;;5.99;35.18;98085.66;5029964;28;20650;-69
2022/03/09 07:26:14;;;;;;;21.90;11.10;;;;;;;6.03;35.08;98090.66;5030486;28;20352;-69
2022/03/09 07:28:39;;;;;;;22.63;11.43;;;;;;;6.09;34.54;98090.25;5030903;28;20191;-69
2022/03/09 07:31:05;;;;;;;25.27;11.30;;;;;;;6.19;35.12;98093.91;5030589;28;20207;-68
2022/03/09 07:33:31;;;;;;;27.90;11.90;;;;;;;6.25;34.79;98096.09;5032977;28;20185;-69
2022/03/09 07:35:56;;;;;;;21.77;10.83;;;;;;;6.27;34.62;98089.03;5013077;28;20393;-69
2022/03/09 07:38:23;;;;;;;25.83;11.97;;;;;;;6.25;34.40;98092.66;5030840;28;20198;-69
2022/03/09 07:40:48;;;;;;;22.40;11.97;;;;;;;6.22;34.90;98093.69;5031692;28;20204;-69
2022/03/09 07:43:14;;;;;;;27.03;11.80;;;;;;;6.27;35.01;98091.63;5030303;28;20457;-69
2022/03/09 07:45:39;;;;;;;17.30;12.03;;;;;;;6.37;34.87;98088.41;5030443;28;20548;-70
2022/03/09 07:48:05;;;;;;;18.77;12.20;;;;;;;6.41;34.51;98100.28;5030816;28;20232;-69
2022/03/09 07:50:30;;;;;;;21.27;11.50;;;;;;;6.51;34.44;98096.13;5030154;28;20184;-69
2022/03/09 07:52:56;;;;;;;24.07;13.10;;;;;;;6.60;35.08;98098.06;5030009;28;20195;-69
2022/03/09 07:55:22;;;;;;;22.53;14.00;;;;;;;6.64;34.82;98101.31;5029735;28;20730;-69
2022/03/09 07:57:47;;;;;;;21.40;12.97;;;;;;;6.71;34.83;98110.38;5030564;28;20281;-69
2022/03/09 08:00:13;;;;;;;17.90;12.40;;;;;;;6.75;34.35;98117.03;5032744;28;20197;-69
2022/03/09 08:02:40;;;;;;;18.30;11.40;;;;;;;6.82;34.10;98114.00;5033873;28;20620;-69
2022/03/09 08:05:06;;;;;;;24.83;11.90;;;;;;;6.86;34.10;98121.50;5034117;28;20431;-69
2022/03/09 08:07:31;;;;;;;17.03;11.37;;;;;;;7.07;34.32;98113.13;5033893;28;20913;-70
2022/03/09 08:09:57;;;;;;;16.37;10.97;;;;;;;7.29;34.11;98109.81;5034194;28;20513;-69
2022/03/09 08:12:23;;;;;;;17.13;11.37;;;;;;;7.42;33.41;98122.84;5033461;28;20295;-69
2022/03/09 08:14:48;;;;;;;20.03;11.20;;;;;;;7.59;33.08;98115.56;5033737;28;20212;-69
2022/03/09 08:17:14;;;;;;;18.03;10.90;;;;;;;7.86;31.72;98109.28;5033509;28;20186;-69
2022/03/09 08:19:39;;;;;;;15.70;10.07;;;;;;;8.01;31.50;98110.75;5033849;28;20194;-69
2022/03/09 08:22:05;;;;;;;22.97;13.00;;;;;;;8.31;31.36;98106.81;5033669;28;20305;-69
2022/03/09 08:24:33;;;;;;;24.03;10.43;;;;;;;8.60;31.12;98104.63;5033363;28;20188;-69
2022/03/09 08:26:59;;;;;;;20.57;11.07;;;;;;;8.62;31.62;98099.25;5033478;28;20518;-68
2022/03/09 08:29:24;;;;;;;19.40;10.60;;;;;;;9.02;30.41;98104.00;5033167;28;20422;-69
2022/03/09 08:31:50;;;;;;;17.70;11.27;;;;;;;9.47;30.11;98104.88;5033601;28;20290;-69
2022/03/09 08:34:15;;;;;;;18.90;10.77;;;;;;;9.89;29.18;98112.81;5033374;28;20276;-68
2022/03/09 08:36:41;;;;;;;17.53;10.33;;;;;;;9.65;28.68;98111.25;5015668;28;20354;-69
2022/03/09 08:39:06;;;;;;;19.00;10.60;;;;;;;9.77;28.49;98109.41;5033420;28;20197;-69
2022/03/09 08:41:32;;;;;;;18.67;11.00;;;;;;;10.20;28.36;98098.97;5033475;28;20217;-69
2022/03/09 08:43:57;;;;;;;20.03;10.83;;;;;;;10.57;28.26;98101.16;5033136;28;20193;-69
2022/03/09 08:46:23;;;;;;;25.53;12.50;;;;;;;11.00;27.80;98105.34;5033069;28;20672;-69
2022/03/09 08:48:48;;;;;;;26.43;11.90;;;;;;;11.26;27.46;98097.00;5033118;28;20194;-68
2022/03/09 08:51:14;;;;;;;28.63;12.67;;;;;;;11.42;27.36;98093.84;5033223;28;20200;-70
2022/03/09 08:53:40;;;;;;;26.20;12.17;;;;;;;11.61;27.38;98100.91;5033288;28;20180;-69
2022/03/09 08:56:08;;;;;;;18.43;10.90;;;;;;;11.71;26.81;98095.66;5033077;28;20237;-69
2022/03/09 08:58:36;;;;;;;22.93;11.67;;;;;;;12.02;26.34;98090.28;5024621;28;20432;-69
2022/03/09 09:01:02;;;;;;;20.63;10.93;;;;;;;12.32;26.03;98088.44;5033111;28;20494;-68
2022/03/09 09:03:28;;;;;;;17.90;12.20;;;;;;;12.55;25.79;98094.19;5032888;28;20439;-69
2022/03/09 09:05:53;;;;;;;32.53;11.97;;;;;;;12.53;26.33;98080.38;5032163;28;20461;-69
2022/03/09 09:08:19;;;;;;;19.40;11.63;;;;;;;12.72;25.38;98078.63;5035436;28;20636;-69
2022/03/09 09:10:45;;;;;;;17.20;11.10;;;;;;;13.02;24.42;98085.41;5031768;28;20291;-69
2022/03/09 09:13:11;;;;;;;13.47;10.80;;;;;;;13.16;24.33;98080.63;5032687;28;20199;-69
2022/03/09 09:15:37;;;;;;;21.53;11.40;;;;;;;13.24;23.61;98083.34;5024526;28;20206;-68
2022/03/09 09:18:04;;;;;;;21.03;11.37;;;;;;;13.09;23.67;98087.47;5032770;28;20423;-69
2022/03/09 09:20:30;;;;;;;17.97;10.70;;;;;;;12.96;24.06;98079.91;5032684;28;20429;-69
2022/03/09 09:22:56;;;;;;;15.57;10.97;;;;;;;13.44;24.39;98078.00;5014993;28;20484;-69
2022/03/09 09:25:23;;;;;;;14.43;10.20;;;;;;;13.98;24.51;98065.66;5030293;28;20188;-68
2022/03/09 09:27:49;;;;;;;22.10;11.87;;;;;;;14.38;22.73;98065.25;5032742;28;20938;-69
2022/03/09 09:30:15;;;;;;;18.03;11.40;;;;;;;14.38;22.92;98063.44;5032226;28;20441;-69
2022/03/09 09:32:41;;;;;;;18.77;11.83;;;;;;;14.40;22.40;98060.63;5032848;28;20447;-70
2022/03/09 09:35:07;;;;;;;14.83;10.90;;;;;;;14.45;22.18;98053.09;5033088;28;20450;-69
2022/03/09 09:37:33;;;;;;;16.60;12.03;;;;;;;14.36;21.79;98056.69;5031121;28;20204;-69
2022/03/09 09:39:58;;;;;;;14.77;10.73;;;;;;;14.45;21.81;98055.72;5032734;28;20185;-69
2022/03/09 09:42:30;;;;;;;17.40;12.93;;;;;;;14.85;21.32;98058.75;5031972;28;20241;-69
2022/03/09 09:45:00;;;;;;;17.67;11.63;;;;;;;15.07;20.85;98053.88;5024280;28;20239;-69
2022/03/09 09:47:27;;;;;;;14.17;11.07;;;;;;;15.30;20.65;98048.81;5032602;28;20463;-69
2022/03/09 09:49:53;;;;;;;17.43;11.60;;;;;;;15.40;20.50;98046.06;5014684;28;20810;-69
2022/03/09 09:52:28;;;;;;;15.90;11.00;;;;;;;15.49;20.21;98045.06;5032493;28;20435;-69
2022/03/09 09:54:55;;;;;;;15.20;10.93;;;;;;;15.82;20.26;98048.56;5031493;28;20466;-69
2022/03/09 09:57:22;;;;;;;17.30;11.70;;;;;;;16.42;20.38;98037.78;5012123;28;20434;-69
2022/03/09 09:59:47;;;;;;;14.70;11.73;;;;;;;16.69;19.07;98038.38;5034059;28;20961;-69
2022/03/09 10:02:13;;;;;;;20.73;12.80;;;;;;;16.46;18.67;98041.72;5030279;28;20504;-69
2022/03/09 10:04:40;;;;;;;16.97;12.13;;;;;;;16.29;19.32;98048.88;5031594;28;20222;-69
2022/03/09 10:07:05;;;;;;;19.50;12.93;;;;;;;16.40;18.65;98045.88;5032146;28;20193;-69
2022/03/09 10:09:38;;;;;;;19.00;12.97;;;;;;;16.79;19.25;98038.13;5031552;28;20864;-70
2022/03/09 10:12:06;;;;;;;20.47;12.90;;;;;;;17.04;18.88;98031.75;5031494;28;20200;-68
2022/03/09 10:14:51;;;;;;;15.80;12.13;;;;;;;17.37;18.87;98029.94;5014350;28;20484;-68
2022/03/09 10:17:17;;;;;;;16.10;11.97;;;;;;;17.39;18.06;98041.19;5031737;28;20435;-68
2022/03/09 10:19:46;;;;;;;19.33;13.50;;;;;;;17.47;18.36;98039.28;5026491;28;20423;-68
2022/03/09 10:22:21;;;;;;;21.47;13.07;;;;;;;17.64;17.89;98042.63;5031185;28;20470;-69
2022/03/09 10:24:46;;;;;;;23.60;12.50;;;;;;;17.79;18.04;98047.16;5026178;28;20458;-70
2022/03/09 10:27:12;;;;;;;17.10;12.70;;;;;;;18.00;17.65;98048.38;5028986;28;20500;-69
2022/03/09 10:29:37;;;;;;;16.70;13.10;;;;;;;17.92;17.70;98043.94;5031770;28;20212;-69
2022/03/09 10:32:03;;;;;;;19.37;13.63;;;;;;;17.95;17.49;98054.19;5031236;28;20200;-70
2022/03/09 10:34:29;;;;;;;17.30;12.43;;;;;;;17.95;17.17;98046.25;5031397;28;20206;-69
2022/03/09 10:37:02;;;;;;;22.90;14.03;;;;;;;17.84;17.23;98052.78;5012885;28;20286;-69
2022/03/09 10:39:34;;;;;;;17.10;13.50;;;;;;;18.12;17.46;98038.97;5031621;28;20431;-69
2022/03/09 10:42:02;;;;;;;19.43;13.47;;;;;;;18.52;17.36;98044.03;5031647;28;20466;-69
2022/03/09 10:44:45;;;;;;;17.60;14.10;;;;;;;18.79;16.84;98045.22;5031200;28;20936;-69
2022/03/09 10:47:12;;;;;;;23.20;12.93;;;;;;;18.94;16.95;98037.28;5031443;28;20419;-69
2022/03/09 10:49:37;;;;;;;19.40;13.33;;;;;;;19.00;16.74;98039.19;5031419;28;20427;-70
2022/03/09 10:52:03;;;;;;;24.10;13.87;;;;;;;19.00;16.87;98043.69;5031513;28;20446;-70
2022/03/09 10:54:32;;;;;;;16.90;12.80;;;;;;;19.17;16.82;98041.63;5030382;28;20176;-70
2022/03/09 10:57:08;;;;;;;17.90;13.23;;;;;;;19.06;16.70;98055.38;5031341;28;20419;-69
2022/03/09 10:59:51;;;;;;;15.27;12.47;;;;;;;19.06;16.79;98056.19;5023334;28;20919;-69
2022/03/09 11:02:21;;;;;;;19.87;13.80;;;;;;;19.14;16.57;98049.97;5031087;28;20458;-69
2022/03/09 11:05:25;;;;;;;17.90;13.63;;;;;;;18.96;16.48;98047.69;5031630;28;20430;-69
2022/03/09 11:07:52;;;;;;;21.87;13.10;;;;;;;19.23;16.31;98053.34;4950545;29;20975;-69
2022/03/09 11:10:17;;;;;;;18.40;13.83;;;;;;;19.47;15.96;98047.66;4957376;28;20454;-69
2022/03/09 11:12:43;;;;;;;18.33;13.90;;;;;;;19.68;16.22;98050.53;4934450;29;20453;-70
2022/03/09 11:15:08;;;;;;;18.23;13.60;;;;;;;19.78;15.95;98049.16;4937409;28;20763;-69
2022/03/09 11:17:34;;;;;;;17.07;12.87;;;;;;;19.79;16.50;98050.81;4956067;28;20187;-69
2022/03/09 11:20:00;;;;;;;19.53;14.37;;;;;;;20.08;16.50;98042.91;4954571;28;20202;-70
2022/03/09 11:22:28;;;;;;;17.10;13.30;;;;;;;20.18;16.46;98042.56;4950923;28;20331;-71
2022/03/09 11:24:54;;;;;;;20.97;14.30;;;;;;;20.03;16.26;98046.16;4935182;29;20426;-69
2022/03/09 11:27:19;;;;;;;20.57;14.17;;;;;;;20.00;16.34;98051.03;4950160;28;20197;-70
2022/03/09 11:29:45;;;;;;;21.57;14.10;;;;;;;20.07;16.50;98044.75;4950704;28;20202;-70
2022/03/09 11:32:11;;;;;;;19.40;13.50;;;;;;;19.96;16.01;98042.59;4951475;28;20215;-70
2022/03/09 11:34:44;;;;;;;18.67;13.97;;;;;;;20.18;16.15;98047.88;4956455;28;20365;-69
2022/03/09 11:37:13;;;;;;;15.93;12.87;;;;;;;19.89;16.80;98039.88;4959741;28;20441;-68
2022/03/09 11:39:43;;;;;;;16.70;13.60;;;;;;;20.18;16.57;98037.25;5028797;28;20808;-70
2022/03/09 11:42:21;;;;;;;19.43;14.20;;;;;;;20.04;16.57;98041.66;5039676;28;20469;-69
2022/03/09 11:45:22;;;;;;;27.33;14.20;;;;;;;20.16;16.51;98039.28;5039290;28;20425;-69
2022/03/09 11:48:14;;;;;;;19.73;14.70;;;;;;;20.13;16.60;98042.34;5033626;28;20415;-69
2022/03/09 11:50:45;;;;;;;21.53;14.23;;;;;;;20.19;16.54;98036.22;5032877;28;20484;-70
2022/03/09 11:53:11;;;;;;;18.73;14.70;;;;;;;20.11;16.20;98037.19;5034238;28;20992;-70
2022/03/09 11:55:36;;;;;;;22.37;14.70;;;;;;;20.09;17.16;98034.72;5016493;28;20423;-70
2022/03/09 11:58:05;;;;;;;24.73;15.70;;;;;;;20.23;17.24;98032.16;5034761;28;20267;-70